Time;durP1;ratioP1;P1;durP2;ratioP2;P2;SDS_P1;SDS_P2;PMS_P1;PMS_P2;Temp;Humidity;BMP_temperature;BMP_pressure;BME280_temperature;BME280_humidity;BME280_pressure;Samples;Min_cycle;Max_cycle;Signal;HPM_P1;HPM_P2
2023/03/05 00:00:09;;;;;;;23.20;11.53;;;1.00;99.90;;;;;;4998693;28;20451;-77
2023/03/05 00:02:36;;;;;;;18.73;12.43;;;1.00;99.90;;;;;;4994260;28;20527;-77
2023/03/05 00:05:04;;;;;;;24.87;12.93;;;1.00;99.90;;;;;;5001228;28;20455;-77
2023/03/05 00:07:31;;;;;;;19.30;11.37;;;1.00;99.90;;;;;;5070253;28;20952;-77
2023/03/05 00:09:59;;;;;;;28.53;14.57;;;1.10;99.90;;;;;;5089266;28;20515;-77
2023/03/05 00:12:26;;;;;;;21.27;11.63;;;1.00;99.90;;;;;;4992452;28;20467;-77
2023/03/05 00:14:53;;;;;;;17.57;10.50;;;1.00;99.90;;;;;;5003174;28;20575;-76
2023/03/05 00:17:21;;;;;;;23.77;13.20;;;1.10;99.90;;;;;;5004023;28;20575;-77
2023/03/05 00:19:48;;;;;;;22.43;14.00;;;1.10;99.90;;;;;;5032405;28;20760;-77
2023/03/05 00:22:15;;;;;;;20.47;11.60;;;1.10;99.90;;;;;;5001247;28;20528;-76
2023/03/05 00:24:42;;;;;;;19.20;10.10;;;1.10;99.90;;;;;;4988268;28;20495;-77
2023/03/05 00:27:09;;;;;;;20.03;12.40;;;1.10;99.90;;;;;;5003576;28;20508;-77
2023/03/05 00:29:36;;;;;;;15.40;10.70;;;1.10;99.90;;;;;;5019962;28;20462;-77
2023/03/05 00:32:03;;;;;;;19.70;13.27;;;1.10;99.90;;;;;;5003497;28;20451;-77
2023/03/05 00:34:31;;;;;;;22.47;11.73;;;1.10;99.90;;;;;;5004482;28;20975;-77
2023/03/05 00:36:58;;;;;;;20.60;12.60;;;1.10;99.90;;;;;;5058690;28;20969;-77
2023/03/05 00:39:25;;;;;;;17.00;11.90;;;1.10;99.90;;;;;;5016432;28;20638;-77
2023/03/05 00:41:53;;;;;;;27.40;11.57;;;1.00;99.90;;;;;;4990652;28;20471;-77
2023/03/05 00:44:20;;;;;;;16.40;10.87;;;1.10;99.90;;;;;;5003900;28;21359;-77
2023/03/05 00:46:48;;;;;;;17.37;11.57;;;1.10;99.90;;;;;;5007054;28;20529;-77
2023/03/05 00:49:15;;;;;;;18.10;10.90;;;1.10;99.90;;;;;;5001506;28;20554;-77
2023/03/05 00:51:43;;;;;;;29.97;12.13;;;1.10;99.90;;;;;;4990436;28;20494;-76
2023/03/05 00:54:10;;;;;;;20.97;12.33;;;1.10;99.90;;;;;;4996385;28;20499;-76
2023/03/05 00:56:37;;;;;;;23.17;12.60;;;1.10;99.90;;;;;;4996310;28;20455;-76
2023/03/05 00:59:04;;;;;;;21.23;12.67;;;1.10;99.90;;;;;;5017495;28;20927;-76
2023/03/05 01:01:31;;;;;;;21.93;11.33;;;1.10;99.90;;;;;;4998913;28;20557;-77
2023/03/05 01:03:59;;;;;;;21.03;12.87;;;1.10;99.90;;;;;;4996113;28;20471;-76
2023/03/05 01:06:27;;;;;;;18.37;10.97;;;1.10;99.90;;;;;;5001531;28;20467;-77
2023/03/05 01:08:56;;;;;;;16.30;10.70;;;1.10;99.90;;;;;;5033777;28;20538;-77
2023/03/05 01:11:23;;;;;;;23.00;11.50;;;1.10;99.90;;;;;;5033826;28;20558;-79
2023/03/05 01:13:50;;;;;;;24.20;12.43;;;1.10;99.90;;;;;;5013347;28;20519;-79
2023/03/05 01:16:17;;;;;;;19.40;11.80;;;1.10;99.90;;;;;;5061127;28;20766;-79
2023/03/05 01:18:44;;;;;;;13.07;8.93;;;1.00;99.90;;;;;;5017079;28;20524;-76
2023/03/05 01:21:11;;;;;;;19.13;11.90;;;1.10;99.90;;;;;;5002682;28;21097;-76
2023/03/05 01:23:38;;;;;;;14.77;11.70;;;1.10;99.90;;;;;;5000595;28;20552;-77
2023/03/05 01:26:07;;;;;;;20.10;10.33;;;1.10;99.90;;;;;;5001233;28;20470;-76
2023/03/05 01:28:34;;;;;;;16.30;11.00;;;1.00;99.90;;;;;;5029212;28;20456;-76
2023/03/05 01:31:01;;;;;;;14.97;10.47;;;1.10;99.90;;;;;;5028278;28;20467;-77
2023/03/05 01:33:28;;;;;;;16.37;11.23;;;1.00;99.90;;;;;;4999890;28;20464;-77
2023/03/05 01:35:55;;;;;;;18.60;13.13;;;1.00;99.90;;;;;;5007098;28;21019;-77
2023/03/05 01:38:22;;;;;;;18.87;11.70;;;1.00;99.90;;;;;;5012671;28;20547;-76
2023/03/05 01:40:49;;;;;;;20.37;10.77;;;1.00;99.90;;;;;;5040042;28;20977;-77
2023/03/05 01:43:27;;;;;;;22.90;13.43;;;1.00;99.90;;;;;;4995796;28;20511;-78
2023/03/05 01:46:30;;;;;;;17.50;10.23;;;1.00;99.90;;;;;;5051660;28;20506;-79
2023/03/05 01:49:05;;;;;;;19.23;10.63;;;1.00;99.90;;;;;;4993779;28;20532;-78
2023/03/05 01:51:38;;;;;;;20.33;11.00;;;1.00;99.90;;;;;;4994075;28;20504;-77
2023/03/05 01:54:07;;;;;;;16.10;10.00;;;1.00;99.90;;;;;;5018748;28;20466;-77
2023/03/05 01:56:35;;;;;;;17.60;11.53;;;1.00;99.90;;;;;;5030157;28;20519;-77
2023/03/05 01:59:04;;;;;;;21.27;13.00;;;1.00;99.90;;;;;;5016821;28;20517;-77
2023/03/05 02:01:33;;;;;;;22.53;12.27;;;1.00;99.90;;;;;;5031509;28;20805;-77
2023/03/05 02:04:01;;;;;;;19.30;11.27;;;1.00;99.90;;;;;;5010502;28;20543;-77
2023/03/05 02:06:28;;;;;;;16.50;10.13;;;1.00;99.90;;;;;;5043387;28;20455;-77
2023/03/05 02:08:56;;;;;;;22.00;12.40;;;1.00;99.90;;;;;;5029919;28;20442;-76
2023/03/05 02:11:23;;;;;;;19.50;11.10;;;1.00;99.90;;;;;;5055415;28;20451;-76
2023/03/05 02:13:50;;;;;;;17.80;12.23;;;1.00;99.90;;;;;;5002491;28;20916;-78
2023/03/05 02:16:18;;;;;;;22.30;10.37;;;1.00;99.90;;;;;;5008002;28;20465;-76
2023/03/05 02:18:45;;;;;;;16.33;10.07;;;1.00;99.90;;;;;;5036212;28;20483;-78
2023/03/05 02:21:13;;;;;;;19.60;11.43;;;1.00;99.90;;;;;;5004618;28;20458;-78
2023/03/05 02:23:40;;;;;;;18.80;10.60;;;1.10;99.90;;;;;;4999930;28;20471;-79
2023/03/05 02:26:09;;;;;;;23.53;13.27;;;1.00;99.90;;;;;;5002830;28;20925;-79
2023/03/05 02:28:40;;;;;;;26.10;12.80;;;1.00;99.90;;;;;;5008680;28;20520;-79
2023/03/05 02:31:12;;;;;;;21.43;11.23;;;1.10;99.90;;;;;;5017115;28;20471;-79
2023/03/05 02:33:39;;;;;;;20.93;13.03;;;1.00;99.90;;;;;;4993560;28;20467;-78
2023/03/05 02:36:07;;;;;;;23.83;11.70;;;1.00;99.90;;;;;;5025881;28;20455;-78
2023/03/05 02:38:36;;;;;;;17.93;11.00;;;1.00;99.90;;;;;;5013192;28;21063;-78
2023/03/05 02:41:03;;;;;;;20.93;11.70;;;1.00;99.90;;;;;;4989095;28;20476;-79
2023/03/05 02:43:30;;;;;;;17.73;10.50;;;0.90;99.90;;;;;;5002715;28;20516;-79
2023/03/05 02:45:57;;;;;;;17.03;10.07;;;0.90;99.90;;;;;;5035125;28;20533;-76
2023/03/05 02:48:24;;;;;;;22.33;12.70;;;0.80;99.90;;;;;;5003848;28;20463;-76
2023/03/05 02:50:51;;;;;;;22.07;13.63;;;0.80;99.90;;;;;;4997892;28;20814;-76
2023/03/05 02:53:18;;;;;;;21.57;12.80;;;0.80;99.90;;;;;;5003441;28;20531;-76
2023/03/05 02:55:48;;;;;;;21.83;12.47;;;0.70;99.90;;;;;;5041004;28;20551;-76
2023/03/05 02:58:16;;;;;;;33.73;12.67;;;0.60;99.90;;;;;;5027506;28;20482;-76
2023/03/05 03:00:45;;;;;;;25.43;13.17;;;0.70;99.90;;;;;;5003474;28;20492;-77
2023/03/05 03:03:12;;;;;;;20.60;11.70;;;0.60;99.90;;;;;;4998846;28;20507;-77
2023/03/05 03:05:39;;;;;;;20.93;11.10;;;0.60;99.90;;;;;;5005067;28;20474;-77
2023/03/05 03:08:07;;;;;;;22.97;14.10;;;0.60;99.90;;;;;;5005390;28;20599;-76
2023/03/05 03:10:34;;;;;;;22.80;12.25;;;0.60;99.90;;;;;;5003031;28;20516;-76
2023/03/05 03:13:02;;;;;;;25.20;12.70;;;0.60;99.90;;;;;;5001275;28;20227;-77
2023/03/05 03:15:29;;;;;;;19.60;12.90;;;0.50;99.90;;;;;;5058086;28;20537;-76
2023/03/05 03:17:58;;;;;;;22.90;12.90;;;0.50;99.90;;;;;;4999606;28;20479;-76
2023/03/05 03:20:25;;;;;;;19.10;12.13;;;0.50;99.90;;;;;;5008583;28;20458;-79
2023/03/05 03:22:52;;;;;;;18.73;12.20;;;0.60;99.90;;;;;;5002386;28;20453;-79
2023/03/05 03:25:22;;;;;;;20.30;12.40;;;0.70;99.90;;;;;;5016029;28;20466;-77
2023/03/05 03:27:49;;;;;;;22.37;13.53;;;0.60;99.90;;;;;;5009645;28;20964;-77
2023/03/05 03:30:18;;;;;;;27.00;13.15;;;0.60;99.90;;;;;;5044292;28;20470;-77
2023/03/05 03:32:45;;;;;;;20.80;12.82;;;0.60;99.90;;;;;;5000040;28;20262;-77
2023/03/05 03:35:13;;;;;;;22.13;13.40;;;0.60;99.90;;;;;;5003022;28;20285;-77
2023/03/05 03:37:40;;;;;;;33.65;16.70;;;0.50;99.90;;;;;;5002171;28;20509;-77
2023/03/05 03:40:08;;;;;;;29.85;16.00;;;0.50;99.90;;;;;;5002114;28;20334;-77
2023/03/05 03:42:35;;;;;;;26.80;15.00;;;0.50;99.90;;;;;;4999218;28;20269;-77
2023/03/05 03:45:03;;;;;;;22.23;14.97;;;0.50;99.90;;;;;;5015114;28;21075;-76
2023/03/05 03:47:32;;;;;;;19.87;12.67;;;0.50;99.90;;;;;;5007778;28;20561;-77
2023/03/05 03:49:59;;;;;;;30.03;15.90;;;0.50;99.90;;;;;;5039565;28;20496;-77
2023/03/05 03:52:26;;;;;;;27.50;15.83;;;0.50;99.90;;;;;;5003717;28;20467;-76
2023/03/05 03:54:56;;;;;;;25.50;13.40;;;0.60;99.90;;;;;;5005677;28;21008;-78
2023/03/05 03:57:23;;;;;;;21.77;13.83;;;0.60;99.90;;;;;;5002754;28;20464;-79
2023/03/05 03:59:50;;;;;;;30.20;14.93;;;0.60;99.90;;;;;;5074698;28;20486;-79
2023/03/05 04:02:17;;;;;;;28.83;15.80;;;0.60;99.90;;;;;;5001686;28;20522;-79
2023/03/05 04:04:45;;;;;;;25.33;13.37;;;0.70;99.90;;;;;;5007163;28;20466;-79
2023/03/05 04:07:13;;;;;;;26.50;13.60;;;0.70;99.90;;;;;;5002380;28;20622;-79
2023/03/05 04:09:39;;;;;;;22.83;15.20;;;0.70;99.90;;;;;;5028052;28;20523;-76
2023/03/05 04:12:07;;;;;;;24.47;15.10;;;0.70;99.90;;;;;;5003345;28;20791;-76
2023/03/05 04:14:34;;;;;;;21.90;13.33;;;0.70;99.90;;;;;;5024298;28;20521;-76
2023/03/05 04:17:01;;;;;;;24.07;14.27;;;0.70;99.90;;;;;;5005852;28;21245;-78
2023/03/05 04:19:29;;;;;;;26.80;16.87;;;0.70;99.90;;;;;;5018740;28;20498;-79
2023/03/05 04:21:58;;;;;;;33.80;15.53;;;0.70;99.90;;;;;;5003200;28;20491;-78
2023/03/05 04:24:26;;;;;;;20.93;13.47;;;0.70;99.90;;;;;;5023895;28;20466;-78
2023/03/05 04:26:53;;;;;;;23.47;14.53;;;0.80;99.90;;;;;;5010760;28;20537;-78
2023/03/05 04:29:20;;;;;;;23.50;14.10;;;0.80;99.90;;;;;;5041032;28;20532;-78
2023/03/05 04:31:47;;;;;;;22.20;14.27;;;0.70;99.90;;;;;;4988974;28;20975;-79
2023/03/05 04:34:14;;;;;;;25.50;14.30;;;0.70;99.90;;;;;;5062103;28;20476;-79
2023/03/05 04:36:41;;;;;;;23.97;13.73;;;0.80;99.90;;;;;;5008020;28;20520;-79
2023/03/05 04:39:09;;;;;;;25.70;15.30;;;0.80;99.90;;;;;;5063235;28;20498;-79
2023/03/05 04:41:36;;;;;;;27.17;15.53;;;0.70;99.90;;;;;;4990998;28;20961;-79
2023/03/05 04:44:03;;;;;;;31.70;16.92;;;0.80;99.90;;;;;;5001989;28;21023;-78
2023/03/05 04:46:31;;;;;;;31.90;15.67;;;0.70;99.90;;;;;;5004071;28;20204;-79
2023/03/05 04:48:58;;;;;;;35.33;18.33;;;0.70;99.90;;;;;;5030609;28;20500;-79
2023/03/05 04:51:25;;;;;;;26.43;17.53;;;0.80;99.90;;;;;;4994804;28;20520;-78
2023/03/05 04:53:52;;;;;;;28.47;16.27;;;0.80;99.90;;;;;;5001620;28;21053;-79
2023/03/05 04:56:20;;;;;;;28.50;14.90;;;0.80;99.90;;;;;;4999249;28;20481;-77
2023/03/05 04:58:48;;;;;;;26.47;15.90;;;0.80;99.90;;;;;;5028508;28;20547;-76
2023/03/05 05:01:15;;;;;;;33.20;16.17;;;0.90;99.90;;;;;;4998599;28;20515;-77
2023/03/05 05:03:42;;;;;;;26.23;15.13;;;0.90;99.90;;;;;;4997170;28;20520;-77
2023/03/05 05:06:08;;;;;;;34.17;16.90;;;0.90;99.90;;;;;;5003015;28;20493;-76
2023/03/05 05:08:37;;;;;;;27.60;16.60;;;0.90;99.90;;;;;;5002150;28;20539;-77
2023/03/05 05:11:06;;;;;;;28.17;17.80;;;1.00;99.90;;;;;;5002505;28;20462;-77
2023/03/05 05:13:35;;;;;;;29.80;17.07;;;0.90;99.90;;;;;;5015203;28;21126;-77
2023/03/05 05:16:02;;;;;;;28.93;17.33;;;1.00;99.90;;;;;;5004821;28;20482;-77
2023/03/05 05:18:29;;;;;;;27.30;16.37;;;1.00;99.90;;;;;;5009102;28;20519;-77
2023/03/05 05:20:56;;;;;;;31.60;15.40;;;1.00;99.90;;;;;;5000954;28;20451;-77
2023/03/05 05:23:23;;;;;;;34.10;15.93;;;1.00;99.90;;;;;;4999786;28;20579;-77
2023/03/05 05:25:56;;;;;;;36.57;16.13;;;1.00;99.90;;;;;;5014563;28;20975;-76
2023/03/05 05:28:23;;;;;;;37.40;17.67;;;1.00;99.90;;;;;;5011419;28;20435;-77
2023/03/05 05:30:52;;;;;;;42.35;17.48;;;1.00;99.90;;;;;;5013500;28;20478;-77
2023/03/05 05:33:19;;;;;;;34.37;16.47;;;1.00;99.90;;;;;;5024374;28;20205;-79
2023/03/05 05:35:47;;;;;;;30.77;16.00;;;1.00;99.90;;;;;;5019434;28;20918;-79
2023/03/05 05:38:13;;;;;;;27.20;15.93;;;1.00;99.90;;;;;;5011983;28;20443;-79
2023/03/05 05:40:41;;;;;;;34.97;18.03;;;1.10;99.90;;;;;;4993900;28;20515;-78
2023/03/05 05:43:08;;;;;;;38.97;17.90;;;1.00;99.90;;;;;;4998978;28;20528;-76
2023/03/05 05:45:38;;;;;;;33.43;17.60;;;1.00;99.90;;;;;;5003686;28;21305;-78
2023/03/05 05:48:06;;;;;;;38.77;18.30;;;1.00;99.90;;;;;;5012046;28;20454;-78
2023/03/05 05:50:33;;;;;;;31.87;15.93;;;1.00;99.90;;;;;;5018509;28;20843;-77
2023/03/05 05:53:00;;;;;;;33.30;18.83;;;1.00;99.90;;;;;;4992637;28;20467;-78
2023/03/05 05:55:27;;;;;;;35.30;17.10;;;1.00;99.90;;;;;;4997774;28;20517;-78
2023/03/05 05:57:54;;;;;;;30.57;18.30;;;1.00;99.90;;;;;;5000440;28;20447;-78
2023/03/05 06:00:22;;;;;;;30.73;17.93;;;1.10;99.90;;;;;;5040241;28;20514;-77
2023/03/05 06:02:49;;;;;;;37.07;17.60;;;1.10;99.90;;;;;;5001377;28;21059;-77
2023/03/05 06:05:17;;;;;;;26.73;16.20;;;1.10;99.90;;;;;;4996539;28;20450;-77
2023/03/05 06:07:44;;;;;;;32.00;16.87;;;1.10;99.90;;;;;;5020681;28;20531;-77
2023/03/05 06:10:11;;;;;;;29.10;16.30;;;1.20;99.90;;;;;;5047973;28;20462;-78
2023/03/05 06:12:39;;;;;;;32.20;17.53;;;1.20;99.90;;;;;;4999564;28;20844;-78
2023/03/05 06:15:07;;;;;;;25.90;16.80;;;1.20;99.90;;;;;;5003795;28;20582;-78
2023/03/05 06:17:34;;;;;;;35.30;19.67;;;1.30;99.90;;;;;;5024874;28;20500;-78
2023/03/05 06:20:01;;;;;;;34.33;17.80;;;1.30;99.90;;;;;;5001503;28;20482;-78
2023/03/05 06:22:29;;;;;;;26.27;16.10;;;1.30;99.90;;;;;;5004966;28;20523;-78
2023/03/05 06:24:56;;;;;;;31.73;15.20;;;1.30;99.90;;;;;;5012394;28;20552;-78
2023/03/05 06:27:23;;;;;;;40.27;17.70;;;1.30;99.90;;;;;;5005400;28;20458;-78
2023/03/05 06:29:53;;;;;;;31.53;18.67;;;1.40;99.90;;;;;;5011101;28;20529;-78
2023/03/05 06:32:20;;;;;;;31.20;15.40;;;1.40;99.90;;;;;;4999973;28;20459;-78
2023/03/05 06:34:47;;;;;;;27.53;16.47;;;1.40;99.90;;;;;;4994639;28;20515;-78
2023/03/05 06:37:14;;;;;;;39.13;18.23;;;1.40;99.90;;;;;;4988651;28;20452;-78
2023/03/05 06:39:42;;;;;;;25.50;16.50;;;1.40;99.90;;;;;;5015112;28;20482;-76
2023/03/05 06:42:09;;;;;;;36.77;17.97;;;1.40;99.90;;;;;;5004517;28;20471;-76
2023/03/05 06:44:38;;;;;;;25.67;15.30;;;1.50;99.90;;;;;;5004580;28;20868;-78
2023/03/05 06:47:05;;;;;;;36.60;18.13;;;1.50;99.90;;;;;;5007801;28;20854;-78
2023/03/05 06:49:32;;;;;;;33.87;18.37;;;1.50;99.90;;;;;;5016349;28;20459;-78
2023/03/05 06:52:00;;;;;;;33.43;18.30;;;1.40;99.90;;;;;;4996619;28;20950;-78
2023/03/05 06:54:27;;;;;;;31.87;18.47;;;1.50;99.90;;;;;;5001069;28;20491;-78
2023/03/05 06:56:55;;;;;;;30.90;15.60;;;1.50;99.90;;;;;;5023861;28;20478;-78
2023/03/05 06:59:22;;;;;;;37.90;17.30;;;1.50;99.90;;;;;;5013173;28;20490;-78
2023/03/05 07:01:49;;;;;;;34.60;17.83;;;1.50;99.90;;;;;;5001683;28;20938;-78
2023/03/05 07:04:17;;;;;;;28.67;16.67;;;1.60;99.90;;;;;;4998463;28;20553;-78
2023/03/05 07:06:44;;;;;;;32.70;16.70;;;1.60;99.90;;;;;;4998803;28;20503;-78
2023/03/05 07:09:14;;;;;;;37.23;17.53;;;1.60;99.90;;;;;;5011604;28;20471;-78
2023/03/05 07:11:41;;;;;;;29.87;15.03;;;1.60;99.90;;;;;;5010184;28;20447;-78
2023/03/05 07:14:09;;;;;;;34.87;16.97;;;1.60;99.90;;;;;;4999103;28;20515;-78
2023/03/05 07:16:36;;;;;;;24.00;14.90;;;1.60;99.90;;;;;;5004663;28;20483;-78
2023/03/05 07:19:05;;;;;;;30.47;15.10;;;1.60;99.90;;;;;;5030644;28;20516;-78
2023/03/05 07:21:34;;;;;;;29.07;15.17;;;1.70;99.90;;;;;;5000712;28;20471;-78
2023/03/05 07:24:03;;;;;;;26.63;14.83;;;1.70;99.90;;;;;;5003365;28;20475;-78
2023/03/05 07:26:32;;;;;;;24.70;14.13;;;1.60;99.90;;;;;;5002881;28;20467;-78
2023/03/05 07:28:59;;;;;;;30.07;14.10;;;1.60;99.90;;;;;;5014457;28;20475;-78
2023/03/05 07:31:30;;;;;;;33.83;15.50;;;1.70;99.90;;;;;;4990078;28;20492;-77
2023/03/05 07:33:58;;;;;;;33.27;16.63;;;1.70;99.90;;;;;;4999222;28;20467;-77
2023/03/05 07:36:25;;;;;;;25.33;16.27;;;1.70;99.90;;;;;;4986884;28;20495;-77
2023/03/05 07:38:52;;;;;;;25.27;14.00;;;1.70;99.90;;;;;;5005212;28;20459;-77
2023/03/05 07:41:22;;;;;;;31.03;16.00;;;1.70;99.90;;;;;;4997719;28;20534;-77
2023/03/05 07:43:50;;;;;;;31.33;15.97;;;1.70;99.90;;;;;;4992943;28;20914;-77
2023/03/05 07:46:19;;;;;;;26.73;13.90;;;1.80;99.90;;;;;;5002679;28;20491;-76
2023/03/05 07:48:48;;;;;;;27.90;17.10;;;1.80;99.90;;;;;;5002123;28;20548;-79
2023/03/05 07:51:17;;;;;;;26.47;13.40;;;1.80;99.90;;;;;;4992611;28;20560;-78
2023/03/05 07:53:45;;;;;;;24.13;13.87;;;1.90;99.90;;;;;;5004269;28;20511;-79
2023/03/05 07:56:12;;;;;;;23.93;15.17;;;1.90;99.90;;;;;;5001464;28;20493;-79
2023/03/05 07:58:39;;;;;;;25.37;16.67;;;2.00;99.90;;;;;;5000970;28;20520;-79
2023/03/05 08:01:13;;;;;;;28.60;14.77;;;2.00;99.90;;;;;;4997900;28;20590;-79
2023/03/05 08:03:40;;;;;;;24.90;13.40;;;2.00;99.90;;;;;;4991035;28;20473;-79
2023/03/05 08:06:10;;;;;;;25.70;13.10;;;2.00;99.90;;;;;;5001987;28;20495;-79
2023/03/05 08:08:38;;;;;;;24.80;14.50;;;2.10;99.90;;;;;;5010638;28;20474;-79
2023/03/05 08:11:06;;;;;;;30.37;14.73;;;2.10;99.90;;;;;;4998624;28;20469;-77
2023/03/05 08:13:33;;;;;;;25.80;14.47;;;2.20;99.90;;;;;;4998094;28;20491;-77
2023/03/05 08:16:05;;;;;;;26.37;16.23;;;2.30;99.90;;;;;;5000148;28;20542;-76
2023/03/05 08:18:32;;;;;;;23.70;13.30;;;2.40;99.90;;;;;;5014077;28;20856;-76
2023/03/05 08:20:59;;;;;;;30.27;16.93;;;2.50;99.90;;;;;;5002791;28;20517;-76
2023/03/05 08:23:28;;;;;;;28.37;15.20;;;2.60;99.90;;;;;;5000911;28;20554;-77
2023/03/05 08:25:55;;;;;;;25.80;15.67;;;2.60;99.90;;;;;;5016288;28;20512;-78
2023/03/05 08:28:22;;;;;;;29.93;14.77;;;2.60;99.90;;;;;;5003237;28;20478;-79
2023/03/05 08:30:50;;;;;;;32.77;14.10;;;2.60;99.90;;;;;;5003252;28;20567;-77
2023/03/05 08:33:17;;;;;;;25.90;15.50;;;2.60;99.90;;;;;;5023294;28;20828;-77
2023/03/05 08:35:44;;;;;;;21.33;13.23;;;2.60;99.90;;;;;;5001301;28;20566;-77
2023/03/05 08:38:11;;;;;;;18.83;10.83;;;2.60;99.90;;;;;;4994171;28;20515;-77
2023/03/05 08:40:39;;;;;;;21.93;13.20;;;2.50;99.90;;;;;;5007635;28;20549;-77
2023/03/05 08:43:06;;;;;;;21.37;12.10;;;2.50;99.90;;;;;;5002767;28;20490;-79
2023/03/05 08:45:33;;;;;;;21.07;14.30;;;2.50;99.90;;;;;;5006006;28;20458;-78
2023/03/05 08:48:00;;;;;;;20.27;11.63;;;2.50;99.90;;;;;;4996162;28;20559;-78
2023/03/05 08:50:27;;;;;;;27.47;13.67;;;2.40;99.90;;;;;;5022034;28;20462;-79
2023/03/05 08:52:55;;;;;;;25.87;13.93;;;2.40;99.90;;;;;;5000593;28;21208;-79
2023/03/05 08:55:22;;;;;;;36.00;15.03;;;2.40;99.90;;;;;;5055580;28;20463;-79
2023/03/05 08:57:51;;;;;;;26.00;14.40;;;2.50;99.90;;;;;;4987609;28;20566;-79
2023/03/05 09:00:18;;;;;;;21.50;11.77;;;2.50;99.90;;;;;;5025214;28;20654;-79
2023/03/05 09:02:45;;;;;;;20.17;13.27;;;2.50;99.90;;;;;;4997929;28;20508;-78
2023/03/05 09:05:12;;;;;;;23.50;12.20;;;2.60;99.90;;;;;;5002534;28;20455;-79
2023/03/05 09:07:39;;;;;;;20.87;11.50;;;2.60;99.90;;;;;;5002034;28;20571;-79
2023/03/05 09:10:10;;;;;;;22.97;13.87;;;2.60;99.90;;;;;;5033050;28;20455;-78
2023/03/05 09:12:37;;;;;;;26.50;12.73;;;2.60;99.90;;;;;;4993312;28;20466;-79
2023/03/05 09:15:07;;;;;;;21.30;10.97;;;2.70;99.90;;;;;;5012362;28;20478;-79
2023/03/05 09:17:34;;;;;;;19.00;10.40;;;2.80;99.90;;;;;;5002723;28;20451;-79
2023/03/05 09:20:02;;;;;;;20.07;12.57;;;2.90;99.90;;;;;;5023399;28;20518;-79
2023/03/05 09:22:29;;;;;;;22.83;12.60;;;3.00;99.90;;;;;;5002179;28;20919;-79
2023/03/05 09:24:56;;;;;;;21.17;11.60;;;3.00;99.90;;;;;;5001084;28;20478;-76
2023/03/05 09:27:24;;;;;;;19.40;12.40;;;3.10;99.90;;;;;;4998751;28;20783;-77
2023/03/05 09:29:51;;;;;;;22.27;11.73;;;3.20;99.90;;;;;;5053966;28;20983;-77
2023/03/05 09:32:20;;;;;;;27.80;12.17;;;3.30;99.90;;;;;;5018012;28;20467;-76
2023/03/05 09:34:47;;;;;;;24.20;13.87;;;3.30;99.90;;;;;;4998632;28;20483;-79
2023/03/05 09:37:14;;;;;;;20.63;12.13;;;3.40;99.90;;;;;;4997261;28;20904;-76
2023/03/05 09:39:41;;;;;;;20.20;12.00;;;3.50;99.90;;;;;;5015458;28;20474;-76
2023/03/05 09:42:28;;;;;;;16.00;11.43;;;3.60;99.90;;;;;;4993605;28;21013;-77
2023/03/05 09:45:08;;;;;;;19.17;10.30;;;3.60;99.90;;;;;;4996099;28;20468;-77
2023/03/05 09:47:49;;;;;;;19.50;11.87;;;3.60;99.90;;;;;;5006719;28;20479;-76
2023/03/05 09:50:31;;;;;;;21.80;11.70;;;3.70;99.90;;;;;;5003601;28;21031;-76
2023/03/05 09:53:04;;;;;;;17.43;10.90;;;3.70;99.90;;;;;;4991984;28;20469;-77
2023/03/05 09:55:39;;;;;;;15.20;10.13;;;3.70;99.90;;;;;;4990638;28;20463;-76
2023/03/05 09:58:11;;;;;;;19.17;12.20;;;3.60;99.90;;;;;;4992864;28;20458;-76
2023/03/05 10:00:41;;;;;;;15.13;10.00;;;3.80;99.90;;;;;;4997534;28;20820;-76
2023/03/05 10:03:16;;;;;;;18.50;9.90;;;3.80;99.90;;;;;;4996585;28;20467;-76
2023/03/05 10:05:55;;;;;;;21.77;11.70;;;3.90;99.90;;;;;;5038005;28;20478;-76
2023/03/05 10:08:29;;;;;;;18.40;11.97;;;3.90;99.90;;;;;;5002217;28;20474;-77
2023/03/05 10:10:59;;;;;;;19.87;9.57;;;4.30;99.90;;;;;;5006637;28;20463;-77
2023/03/05 10:13:30;;;;;;;22.77;9.93;;;4.30;99.90;;;;;;4997299;28;20515;-77
2023/03/05 10:16:05;;;;;;;15.97;9.17;;;4.20;99.90;;;;;;4996466;28;20552;-76
2023/03/05 10:18:40;;;;;;;13.37;8.50;;;4.50;99.90;;;;;;4999557;28;20976;-76
2023/03/05 10:21:13;;;;;;;22.00;10.93;;;4.60;99.90;;;;;;5018105;28;20587;-76
2023/03/05 10:23:55;;;;;;;12.07;8.37;;;4.70;99.90;;;;;;5001822;28;20543;-76
2023/03/05 10:26:41;;;;;;;11.37;7.63;;;4.60;99.90;;;;;;5014765;28;20475;-77
2023/03/05 10:29:31;;;;;;;13.73;9.23;;;4.60;99.90;;;;;;5013458;28;20510;-77
2023/03/05 10:32:11;;;;;;;13.63;7.87;;;4.60;99.90;;;;;;4998078;28;20563;-76
2023/03/05 10:35:10;;;;;;;13.20;9.23;;;4.50;99.90;;;;;;4995037;28;20494;-77
2023/03/05 10:37:54;;;;;;;15.27;8.17;;;4.40;99.90;;;;;;5001056;28;20494;-76
2023/03/05 10:40:31;;;;;;;11.53;7.87;;;4.30;99.90;;;;;;5023704;28;20946;-76
2023/03/05 10:43:05;;;;;;;8.20;6.20;;;4.50;99.90;;;;;;5003133;28;20455;-76
2023/03/05 10:45:38;;;;;;;19.03;8.70;;;4.50;99.90;;;;;;5006237;28;20485;-76
2023/03/05 10:48:13;;;;;;;12.40;8.50;;;4.50;99.90;;;;;;5010703;28;20540;-76
2023/03/05 10:50:46;;;;;;;12.87;6.70;;;4.50;99.90;;;;;;5021965;28;20542;-76
2023/03/05 10:53:24;;;;;;;15.00;7.40;;;4.50;99.90;;;;;;4999943;28;20545;-76
2023/03/05 10:55:55;;;;;;;12.70;7.67;;;4.50;99.90;;;;;;5003061;28;20479;-76
2023/03/05 10:58:22;;;;;;;15.10;7.40;;;4.70;99.90;;;;;;5004124;28;20459;-77
2023/03/05 11:01:01;;;;;;;15.77;8.10;;;4.70;99.90;;;;;;5027387;28;20490;-77
2023/03/05 11:03:48;;;;;;;14.10;8.27;;;4.80;99.90;;;;;;5003253;28;20510;-77
2023/03/05 11:06:27;;;;;;;16.13;10.77;;;5.10;99.90;;;;;;4996377;28;21035;-77
2023/03/05 11:08:54;;;;;;;20.47;9.97;;;5.00;99.90;;;;;;4997402;28;20582;-76
2023/03/05 11:11:22;;;;;;;12.00;7.87;;;5.00;99.90;;;;;;5054540;28;20456;-77
2023/03/05 11:13:55;;;;;;;13.27;8.73;;;5.00;99.90;;;;;;5044475;28;20888;-77
2023/03/05 11:16:25;;;;;;;11.60;6.83;;;5.20;99.90;;;;;;5012919;28;21062;-77
2023/03/05 11:19:15;;;;;;;12.03;9.40;;;5.40;99.90;;;;;;5012299;28;20471;-77
2023/03/05 11:21:45;;;;;;;11.00;7.17;;;5.10;99.90;;;;;;5008841;28;20548;-76
2023/03/05 11:24:14;;;;;;;11.87;7.17;;;5.40;99.90;;;;;;4998953;28;21072;-76
2023/03/05 11:26:49;;;;;;;11.00;7.57;;;5.40;99.90;;;;;;5001101;28;20827;-76
2023/03/05 11:29:20;;;;;;;19.50;8.40;;;5.30;99.90;;;;;;4992878;28;20471;-76
2023/03/05 11:31:48;;;;;;;10.47;6.90;;;5.30;99.90;;;;;;5014834;28;20483;-76
2023/03/05 11:34:25;;;;;;;11.70;7.90;;;5.10;99.90;;;;;;5003450;28;20478;-76
2023/03/05 11:37:05;;;;;;;16.87;7.67;;;5.20;99.90;;;;;;5038092;28;20982;-76
2023/03/05 11:39:36;;;;;;;13.27;6.13;;;5.40;99.90;;;;;;5008279;28;20873;-76
2023/03/05 11:42:06;;;;;;;8.57;5.97;;;5.50;99.90;;;;;;5000268;28;20539;-76
2023/03/05 11:44:39;;;;;;;11.40;5.67;;;5.70;99.90;;;;;;5002130;28;20584;-76
2023/03/05 11:47:19;;;;;;;9.30;8.03;;;5.70;99.90;;;;;;5007044;28;20483;-76
2023/03/05 11:49:50;;;;;;;9.07;5.40;;;5.60;99.90;;;;;;5010017;28;20512;-76
2023/03/05 11:52:24;;;;;;;12.53;7.63;;;5.20;99.90;;;;;;5001681;28;20516;-77
2023/03/05 11:54:59;;;;;;;12.30;7.27;;;5.10;99.90;;;;;;4995840;28;20465;-76
2023/03/05 11:57:27;;;;;;;9.87;7.40;;;5.20;99.90;;;;;;4991607;28;20467;-77
2023/03/05 11:59:58;;;;;;;8.17;5.30;;;5.40;99.90;;;;;;5019848;28;20466;-76
2023/03/05 12:02:27;;;;;;;9.57;6.13;;;5.30;99.90;;;;;;5005168;28;20975;-77
2023/03/05 12:04:54;;;;;;;11.70;7.00;;;5.10;99.90;;;;;;4993593;28;20459;-76
2023/03/05 12:07:34;;;;;;;11.40;6.23;;;5.00;99.90;;;;;;4992994;28;20916;-77
2023/03/05 12:10:02;;;;;;;11.17;6.97;;;5.00;99.90;;;;;;5012605;28;20462;-77
2023/03/05 12:12:37;;;;;;;9.70;6.93;;;5.10;99.90;;;;;;5001725;28;20519;-76
2023/03/05 12:15:30;;;;;;;15.00;6.47;;;5.10;99.90;;;;;;4992900;28;20494;-76
2023/03/05 12:18:06;;;;;;;8.63;5.90;;;5.20;99.90;;;;;;5005361;28;20528;-76
2023/03/05 12:20:41;;;;;;;13.13;6.83;;;5.10;99.90;;;;;;4998637;28;20527;-76
2023/03/05 12:23:14;;;;;;;9.50;6.00;;;5.00;99.90;;;;;;5011318;28;21284;-76
2023/03/05 12:25:49;;;;;;;8.93;5.30;;;5.00;99.90;;;;;;5020764;28;20534;-76
2023/03/05 12:28:37;;;;;;;10.13;6.07;;;4.90;99.90;;;;;;5056315;28;20940;-76
2023/03/05 12:31:05;;;;;;;7.63;5.37;;;5.00;99.90;;;;;;5012010;28;20521;-76
2023/03/05 12:33:35;;;;;;;8.00;5.60;;;5.10;99.90;;;;;;5007096;28;20958;-76
2023/03/05 12:36:36;;;;;;;6.40;4.60;;;5.20;99.90;;;;;;5005280;28;20463;-76
2023/03/05 12:39:42;;;;;;;10.20;6.20;;;5.10;99.90;;;;;;5011548;28;20466;-76
2023/03/05 12:42:39;;;;;;;6.27;4.10;;;5.20;99.90;;;;;;5057741;28;20544;-76
2023/03/05 12:45:25;;;;;;;10.40;5.17;;;5.30;99.90;;;;;;4995909;28;20918;-76
2023/03/05 12:48:25;;;;;;;8.10;5.40;;;5.30;99.90;;;;;;5006690;28;20458;-76
2023/03/05 12:50:58;;;;;;;10.23;4.73;;;5.30;98.90;;;;;;4999626;28;21386;-77
2023/03/05 12:53:25;;;;;;;8.43;5.00;;;5.30;99.60;;;;;;4994376;28;20526;-76